Terminal Aerodrome Forecast
Issued by NWS

Home | Current Version | Previous Version | Text Only | Print | Product List | Glossary On
Versions: 1 2 3 4 5 6 7 8 9 10 11 12 13 14 15 16
000
FTUS41 KAKQ 271417 AAA
TAFPHF
TAF AMD
KPHF 271417Z 2714/2812 02014G22KT P6SM SCT015 OVC025
      TEMPO 2715/2718 4SM -RA BR OVC015
     FM271800 01012G20KT 4SM -RA BR OVC015
     FM272100 36008KT 5SM -RA BR OVC025
     FM280100 34010KT P6SM BKN040
     FM280500 35010G18KT P6SM OVC050=

USA.gov is the U.S. government's official web portal to all federal, state and local government web resources and services.